Wybark, Oklahoma
Current Conditions -  °F | °C
As of 1:53 AM on Tuesday 21 Oct 2014 (Local Time) from KMKO Reporting Station
Clear Clear  
Wind Chill: 59°   Ceiling: Unl
Heat Index: 59°   Visibility: 7mi
Dew Point: 58°   Wind: 3mph
Humidity: 96%   Direction: 40°NE
Pressure: 30.08"   Gusts: NA
Location:  35.6818°N, 95.3578°W
Report Text: KMKO 210653Z AUTO 04003KT 7SM CLR 15/14 A3008 RMK AO2 SLP180 T01500144
Loading
Personal Weather Stations






























Interactive Weather Map
Tropical Storm Tracking
New forecast layout! Learn more

10-Day Weather Forecast

Advertisements
Track Severe Weather on mobile